createdAt,value
2022-11-27T00:00:30.093Z,.50
2022-11-27T00:01:02.033Z,.50
2022-11-27T00:01:34.106Z,.50
2022-11-27T00:02:05.974Z,.50
2022-11-27T00:02:40.590Z,.50
2022-11-27T00:03:09.777Z,.50
2022-11-27T00:03:41.827Z,.50
2022-11-27T00:04:13.931Z,.38
2022-11-27T00:04:45.506Z,.38
2022-11-27T00:05:17.756Z,.27
2022-11-27T00:05:49.629Z,.27
2022-11-27T00:06:21.594Z,.27
2022-11-27T00:06:53.708Z,.27
2022-11-27T00:07:25.641Z,.27
2022-11-27T00:07:57.423Z,.27
2022-11-27T00:08:29.532Z,.27
2022-11-27T00:09:01.620Z,.22
2022-11-27T00:09:33.567Z,.22
2022-11-27T00:10:06.073Z,.22
2022-11-27T00:10:37.482Z,.22
2022-11-27T00:11:09.193Z,.22
2022-11-27T00:11:41.277Z,.22
2022-11-27T00:12:13.634Z,.22
2022-11-27T00:12:45.232Z,.22
2022-11-27T00:13:17.187Z,.22
2022-11-27T00:13:49.215Z,.22
2022-11-27T00:14:21.170Z,.22
2022-11-27T00:14:55.550Z,.22
2022-11-27T00:15:25.535Z,.22
2022-11-27T00:15:57.139Z,.22
2022-11-27T00:16:29.337Z,.11
2022-11-27T00:17:01.488Z,.11
2022-11-27T00:17:33.114Z,.11
2022-11-27T00:17:49.091Z,.11
2022-11-27T00:18:33.344Z,.11
2022-11-27T00:19:05.810Z,.11
2022-11-27T00:19:37.338Z,.11
2022-11-27T00:20:09.286Z,.11
2022-11-27T00:20:41.014Z,.11
2022-11-27T00:21:12.910Z,.11
2022-11-27T00:21:45.288Z,.11
2022-11-27T00:22:16.876Z,.11
2022-11-27T00:22:48.873Z,.11
2022-11-27T00:23:05.916Z,.11
2022-11-27T00:23:48.684Z,.11
2022-11-27T00:24:20.980Z,.11
2022-11-27T00:24:52.759Z,.11
2022-11-27T00:25:25.325Z,.11
2022-11-27T00:25:56.819Z,.22
2022-11-27T00:26:33.083Z,.22
2022-11-27T00:27:00.582Z,.22
2022-11-27T00:27:32.596Z,.22
2022-11-27T00:28:05.421Z,.22
2022-11-27T00:28:36.687Z,.22
2022-11-27T00:29:08.544Z,.22
2022-11-27T00:29:40.467Z,.22
2022-11-27T00:30:13.669Z,.22
2022-11-27T00:30:44.930Z,.22
2022-11-27T00:31:16.440Z,.27
2022-11-27T00:31:48.418Z,.27
2022-11-27T00:32:05.283Z,.27
2022-11-27T00:32:36.353Z,.27
2022-11-27T00:33:20.616Z,.27
2022-11-27T00:33:52.290Z,.27
2022-11-27T00:34:24.801Z,.27
2022-11-27T00:34:56.603Z,.27
2022-11-27T00:35:28.673Z,.22
2022-11-27T00:36:00.288Z,.27
2022-11-27T00:36:32.296Z,.22
2022-11-27T00:37:05.384Z,.22
2022-11-27T00:37:36.334Z,.27
2022-11-27T00:38:08.127Z,.27
2022-11-27T00:38:40.102Z,.27
2022-11-27T00:39:12.283Z,.27
2022-11-27T00:39:44.818Z,.27
2022-11-27T00:40:16.251Z,.27
2022-11-27T00:40:48.165Z,.27
2022-11-27T00:41:05.396Z,.27
2022-11-27T00:41:48.108Z,.27
2022-11-27T00:42:20.123Z,.22
2022-11-27T00:42:51.825Z,.22
2022-11-27T00:43:24.432Z,.22
2022-11-27T00:43:56.029Z,.11
2022-11-27T00:44:27.952Z,.11
2022-11-27T00:44:59.945Z,.11
2022-11-27T00:45:32.230Z,.11
2022-11-27T00:46:04.727Z,.22
2022-11-27T00:46:36.052Z,.22
2022-11-27T00:47:07.724Z,.22
2022-11-27T00:47:39.720Z,.22
2022-11-27T00:48:11.930Z,.22
2022-11-27T00:48:44.089Z,.22
2022-11-27T00:49:15.566Z,.22
2022-11-27T00:49:47.638Z,.22
2022-11-27T00:50:05.006Z,.22
2022-11-27T00:50:35.669Z,.11
2022-11-27T00:51:19.818Z,.11
2022-11-27T00:51:51.602Z,.11
2022-11-27T00:52:24.198Z,.11
2022-11-27T00:52:55.596Z,.11
2022-11-27T00:53:27.621Z,.11
2022-11-27T00:53:59.425Z,.11
2022-11-27T00:54:31.465Z,.11
2022-11-27T00:55:05.024Z,0
2022-11-27T00:55:35.711Z,0
2022-11-27T00:56:07.450Z,0
2022-11-27T00:56:39.403Z,-.11
2022-11-27T00:57:11.466Z,-.11
2022-11-27T00:57:44.040Z,-.11
2022-11-27T00:58:15.409Z,-.11
2022-11-27T00:58:47.335Z,-.11
2022-11-27T00:59:19.340Z,-.22
2022-11-27T00:59:51.457Z,-.22
2022-11-27T01:00:23.925Z,-.22
2022-11-27T01:00:55.217Z,-.22
2022-11-27T01:01:27.532Z,-.11
2022-11-27T01:01:59.352Z,-.11
2022-11-27T01:02:31.073Z,-.11
2022-11-27T01:02:47.328Z,-.11
2022-11-27T01:03:19.271Z,-.11
2022-11-27T01:04:04.087Z,-.11
2022-11-27T01:04:35.338Z,-.11
2022-11-27T01:05:07.213Z,-.11
2022-11-27T01:05:39.070Z,-.11
2022-11-27T01:06:11.159Z,-.11
2022-11-27T01:06:43.064Z,-.22
2022-11-27T01:07:15.518Z,-.22
2022-11-27T01:07:46.949Z,-.22
2022-11-27T01:08:18.966Z,-.22
2022-11-27T01:08:50.935Z,-.22
2022-11-27T01:09:22.961Z,-.22
2022-11-27T01:09:55.091Z,-.22
2022-11-27T01:10:27.156Z,-.22
2022-11-27T01:10:59.010Z,-.11
2022-11-27T01:11:30.740Z,-.11
2022-11-27T01:11:47.029Z,-.11
2022-11-27T01:12:30.802Z,-.11
2022-11-27T01:13:03.796Z,-.11
2022-11-27T01:13:34.818Z,-.11
2022-11-27T01:14:06.733Z,-.11
2022-11-27T01:14:39.008Z,-.11
2022-11-27T01:15:11.478Z,-.11
2022-11-27T01:15:42.739Z,-.11
2022-11-27T01:16:15.130Z,-.11
2022-11-27T01:16:46.552Z,-.11
2022-11-27T01:17:18.624Z,-.11
2022-11-27T01:17:50.628Z,-.11
2022-11-27T01:18:22.400Z,-.11
2022-11-27T01:18:54.933Z,-.22
2022-11-27T01:19:26.482Z,-.22
2022-11-27T01:19:58.380Z,-.22
2022-11-27T01:20:30.714Z,-.22
2022-11-27T01:21:03.166Z,-.22
2022-11-27T01:21:34.558Z,-.22
2022-11-27T01:22:06.399Z,-.22
2022-11-27T01:22:38.230Z,-.22
2022-11-27T01:23:10.284Z,-.22
2022-11-27T01:23:42.411Z,-.22
2022-11-27T01:24:14.423Z,-.22
2022-11-27T01:24:46.231Z,-.22
2022-11-27T01:25:03.198Z,-.22
2022-11-27T01:25:34.462Z,-.22
2022-11-27T01:26:18.256Z,-.22
2022-11-27T01:26:50.145Z,-.22
2022-11-27T01:27:22.027Z,-.22
2022-11-27T01:27:54.630Z,-.22
2022-11-27T01:28:26.220Z,-.22
2022-11-27T01:28:57.929Z,-.22
2022-11-27T01:29:30.126Z,-.22
2022-11-27T01:29:46.206Z,-.22
2022-11-27T01:30:30.492Z,-.22
2022-11-27T01:31:02.602Z,-.22
2022-11-27T01:31:34.153Z,-.22
2022-11-27T01:32:06.037Z,-.22
2022-11-27T01:32:37.906Z,-.22
2022-11-27T01:33:09.898Z,-.22
2022-11-27T01:33:41.892Z,-.22
2022-11-27T01:34:14.170Z,-.22
2022-11-27T01:34:45.930Z,-.27
2022-11-27T01:35:18.178Z,-.27
2022-11-27T01:35:49.574Z,-.27
2022-11-27T01:36:21.822Z,-.27
2022-11-27T01:36:54.223Z,-.27
2022-11-27T01:37:25.791Z,-.27
2022-11-27T01:37:57.693Z,-.27
2022-11-27T01:38:29.718Z,-.27
2022-11-27T01:39:02.370Z,-.38
2022-11-27T01:39:33.921Z,-.38
2022-11-27T01:40:06.148Z,-.38
2022-11-27T01:40:37.504Z,-.38
2022-11-27T01:41:09.572Z,-.38
2022-11-27T01:41:41.641Z,-.38
2022-11-27T01:42:13.640Z,-.38
2022-11-27T01:42:45.585Z,-.38
2022-11-27T01:43:01.772Z,-.38
2022-11-27T01:43:33.576Z,-.38
2022-11-27T01:44:17.597Z,-.38
2022-11-27T01:44:49.318Z,-.38
2022-11-27T01:45:21.801Z,-.38
2022-11-27T01:45:53.936Z,-.38
2022-11-27T01:46:25.546Z,-.38
2022-11-27T01:46:57.488Z,-.38
2022-11-27T01:47:29.269Z,-.38
2022-11-27T01:47:45.570Z,-.38
2022-11-27T01:48:29.226Z,-.50
2022-11-27T01:49:01.449Z,-.50
2022-11-27T01:49:33.436Z,-.61
2022-11-27T01:50:05.774Z,-.61
2022-11-27T01:50:37.182Z,-.61
2022-11-27T01:51:09.344Z,-.61
2022-11-27T01:51:41.099Z,-.61
2022-11-27T01:52:13.357Z,-.61
2022-11-27T01:52:45.107Z,-.61
2022-11-27T01:53:16.959Z,-.61
2022-11-27T01:53:33.269Z,-.61
2022-11-27T01:54:05.328Z,-.61
2022-11-27T01:54:48.951Z,-.61
2022-11-27T01:55:21.433Z,-.50
2022-11-27T01:55:52.840Z,-.50
2022-11-27T01:56:25.093Z,-.50
2022-11-27T01:56:57.091Z,-.50
2022-11-27T01:57:28.900Z,-.50
2022-11-27T01:58:00.897Z,-.50
2022-11-27T01:58:16.884Z,-.50
2022-11-27T01:59:00.913Z,-.61
2022-11-27T01:59:33.018Z,-.61
2022-11-27T02:00:06.906Z,-.61
2022-11-27T02:00:36.755Z,-.61
2022-11-27T02:01:08.730Z,-.61
2022-11-27T02:01:40.741Z,-.61
2022-11-27T02:02:12.942Z,-.61
2022-11-27T02:02:44.913Z,-.61
2022-11-27T02:03:00.811Z,-.61
2022-11-27T02:03:32.778Z,-.61
2022-11-27T02:04:16.645Z,-.61
2022-11-27T02:04:48.677Z,-.61
2022-11-27T02:05:20.879Z,-.61
2022-11-27T02:05:52.453Z,-.61
2022-11-27T02:06:24.990Z,-.61
2022-11-27T02:06:56.651Z,-.61
2022-11-27T02:07:28.443Z,-.61
2022-11-27T02:07:45.116Z,-.61
2022-11-27T02:08:28.386Z,-.61
2022-11-27T02:09:00.464Z,-.61
2022-11-27T02:09:32.517Z,-.72
2022-11-27T02:10:05.613Z,-.72
2022-11-27T02:10:36.447Z,-.72
2022-11-27T02:11:08.320Z,-.72
2022-11-27T02:11:40.311Z,-.72
2022-11-27T02:12:12.209Z,-.72
2022-11-27T02:12:44.480Z,-.72
2022-11-27T02:13:00.473Z,-.72
2022-11-27T02:13:44.613Z,-.77
2022-11-27T02:14:16.169Z,-.77
2022-11-27T02:14:32.250Z,-.77
2022-11-27T02:15:07.308Z,-.77
2022-11-27T02:15:48.200Z,-.77
2022-11-27T02:16:20.271Z,-.77
2022-11-27T02:16:52.092Z,-.77
2022-11-27T02:17:24.500Z,-.77
2022-11-27T02:17:56.070Z,-.77
2022-11-27T02:18:28.354Z,-.77
2022-11-27T02:18:59.968Z,-.77
2022-11-27T02:19:16.165Z,-.77
2022-11-27T02:19:59.981Z,-.77
2022-11-27T02:20:16.417Z,-.77
2022-11-27T02:20:59.997Z,-.72
2022-11-27T02:21:31.819Z,-.72
2022-11-27T02:22:04.852Z,-.72
2022-11-27T02:22:35.949Z,-.72
2022-11-27T02:23:07.745Z,-.72
2022-11-27T02:23:39.884Z,-.72
2022-11-27T02:24:11.734Z,-.77
2022-11-27T02:24:43.946Z,-.77
2022-11-27T02:24:59.997Z,-.77
2022-11-27T02:25:31.821Z,-.88
2022-11-27T02:26:15.883Z,-.88
2022-11-27T02:26:47.550Z,-1.00
2022-11-27T02:27:19.627Z,-1.00
2022-11-27T02:27:51.770Z,-1.11
2022-11-27T02:28:24.076Z,-1.11
2022-11-27T02:28:55.599Z,-1.11
2022-11-27T02:29:27.534Z,-1.11
2022-11-27T02:29:59.588Z,-1.00
2022-11-27T02:30:31.926Z,-1.00
2022-11-27T02:31:04.426Z,-1.00
2022-11-27T02:31:35.618Z,-1.00
2022-11-27T02:32:07.462Z,-1.11
2022-11-27T02:32:39.422Z,-1.11
2022-11-27T02:33:11.267Z,-1.11
2022-11-27T02:33:43.520Z,-1.11
2022-11-27T02:33:59.444Z,-1.00
2022-11-27T02:34:43.609Z,-1.00
2022-11-27T02:35:15.838Z,-1.00
2022-11-27T02:35:47.140Z,-1.00
2022-11-27T02:36:19.269Z,-1.00
2022-11-27T02:36:51.393Z,-1.00
2022-11-27T02:37:23.679Z,-1.00
2022-11-27T02:37:55.660Z,-1.00
2022-11-27T02:38:27.209Z,-1.00
2022-11-27T02:38:59.218Z,-1.00
2022-11-27T02:39:31.305Z,-1.00
2022-11-27T02:40:04.541Z,-1.00
2022-11-27T02:40:35.274Z,-1.00
2022-11-27T02:41:07.229Z,-1.00
2022-11-27T02:41:39.123Z,-1.00
2022-11-27T02:42:10.912Z,-1.00
2022-11-27T02:42:43.235Z,-1.11
2022-11-27T02:42:59.119Z,-1.11
2022-11-27T02:43:30.992Z,-1.11
2022-11-27T02:44:15.312Z,-1.11
2022-11-27T02:44:46.786Z,-1.11
2022-11-27T02:45:19.247Z,-1.11
2022-11-27T02:45:50.879Z,-1.11
2022-11-27T02:46:22.987Z,-1.11
2022-11-27T02:46:55.086Z,-1.22
2022-11-27T02:47:26.792Z,-1.22
2022-11-27T02:47:58.691Z,-1.22
2022-11-27T02:48:30.899Z,-1.22
2022-11-27T02:49:03.533Z,-1.22
2022-11-27T02:49:34.946Z,-1.22
2022-11-27T02:50:07.110Z,-1.22
2022-11-27T02:50:38.748Z,-1.22
2022-11-27T02:51:10.556Z,-1.22
2022-11-27T02:51:42.639Z,-1.22
2022-11-27T02:52:14.991Z,-1.22
2022-11-27T02:52:46.732Z,-1.22
2022-11-27T02:53:18.494Z,-1.27
2022-11-27T02:53:50.528Z,-1.27
2022-11-27T02:54:22.757Z,-1.27
2022-11-27T02:54:54.767Z,-1.38
2022-11-27T02:55:26.676Z,-1.38
2022-11-27T02:55:58.424Z,-1.38
2022-11-27T02:56:30.490Z,-1.38
2022-11-27T02:57:02.795Z,-1.38
2022-11-27T02:57:34.614Z,-1.38
2022-11-27T02:58:06.415Z,-1.50
2022-11-27T02:58:38.313Z,-1.50
2022-11-27T02:59:10.411Z,-1.50
2022-11-27T02:59:42.329Z,-1.50
2022-11-27T02:59:58.441Z,-1.50
2022-11-27T03:00:30.706Z,-1.50
2022-11-27T03:01:14.580Z,-1.50
2022-11-27T03:01:46.487Z,-1.61
2022-11-27T03:02:18.185Z,-1.61
2022-11-27T03:02:50.266Z,-1.61
2022-11-27T03:03:22.469Z,-1.61
2022-11-27T03:03:54.484Z,-1.61
2022-11-27T03:04:10.308Z,-1.61
2022-11-27T03:04:42.708Z,-1.61
2022-11-27T03:05:26.255Z,-1.50
2022-11-27T03:05:58.137Z,-1.50
2022-11-27T03:06:29.965Z,-1.50
2022-11-27T03:07:02.267Z,-1.50
2022-11-27T03:07:34.528Z,-1.50
2022-11-27T03:08:06.344Z,-1.50
2022-11-27T03:08:37.750Z,-1.50
2022-11-27T03:09:09.836Z,-1.50
2022-11-27T03:09:41.911Z,-1.50
2022-11-27T03:10:14.396Z,-1.50
2022-11-27T03:10:45.859Z,-1.61
2022-11-27T03:11:17.709Z,-1.61
2022-11-27T03:11:49.824Z,-1.72
2022-11-27T03:12:21.888Z,-1.72
2022-11-27T03:12:53.806Z,-1.72
2022-11-27T03:13:25.744Z,-1.72
2022-11-27T03:13:57.698Z,-1.72
2022-11-27T03:14:29.889Z,-1.72
2022-11-27T03:15:04.557Z,-1.72
2022-11-27T03:15:34.139Z,-1.72
2022-11-27T03:16:06.045Z,-1.72
2022-11-27T03:16:37.731Z,-1.72
2022-11-27T03:17:09.638Z,-1.72
2022-11-27T03:17:41.577Z,-1.77
2022-11-27T03:18:13.845Z,-1.77
2022-11-27T03:18:45.470Z,-1.77
2022-11-27T03:19:17.362Z,-1.77
2022-11-27T03:19:49.446Z,-1.77
2022-11-27T03:20:21.825Z,-1.72
2022-11-27T03:20:53.603Z,-1.72
2022-11-27T03:21:25.353Z,-1.72
2022-11-27T03:21:41.456Z,-1.72
2022-11-27T03:22:25.476Z,-1.72
2022-11-27T03:22:57.416Z,-1.72
2022-11-27T03:23:29.138Z,-1.72
2022-11-27T03:24:01.513Z,-1.72
2022-11-27T03:24:33.840Z,-1.72
2022-11-27T03:25:05.896Z,-1.72
2022-11-27T03:25:37.065Z,-1.72
2022-11-27T03:26:09.237Z,-1.72
2022-11-27T03:26:41.134Z,-1.72
2022-11-27T03:27:13.651Z,-1.72
2022-11-27T03:27:45.264Z,-1.72
2022-11-27T03:28:17.106Z,-1.72
2022-11-27T03:28:49.138Z,-1.72
2022-11-27T03:29:21.253Z,-1.77
2022-11-27T03:29:53.151Z,-1.77
2022-11-27T03:30:25.667Z,-1.77
2022-11-27T03:30:41.194Z,-1.77
2022-11-27T03:31:13.309Z,-1.77
2022-11-27T03:31:29.132Z,-1.88
2022-11-27T03:32:01.149Z,-1.88
2022-11-27T03:32:32.822Z,-1.88
2022-11-27T03:33:05.724Z,-1.88
2022-11-27T03:33:36.989Z,-1.88
2022-11-27T03:34:08.749Z,-1.88
2022-11-27T03:34:41.095Z,-1.88
2022-11-27T03:34:56.909Z,-1.88
2022-11-27T03:35:29.151Z,-1.88
2022-11-27T03:36:14.071Z,-1.88
2022-11-27T03:36:45.106Z,-1.88
2022-11-27T03:37:16.791Z,-1.88
2022-11-27T03:37:48.683Z,-1.88
2022-11-27T03:38:20.759Z,-1.88
2022-11-27T03:38:52.710Z,-1.88
2022-11-27T03:39:25.073Z,-1.77
2022-11-27T03:39:40.778Z,-1.77
2022-11-27T03:40:24.994Z,-1.77
2022-11-27T03:40:56.611Z,-1.88
2022-11-27T03:41:28.480Z,-1.88
2022-11-27T03:42:00.553Z,-1.88
2022-11-27T03:42:32.510Z,-1.88
2022-11-27T03:43:05.532Z,-1.88
2022-11-27T03:43:36.488Z,-1.88
2022-11-27T03:44:08.401Z,-1.88
2022-11-27T03:44:40.702Z,-1.88
2022-11-27T03:45:14.117Z,-1.88
2022-11-27T03:45:44.597Z,-1.88
2022-11-27T03:46:16.416Z,-1.88
2022-11-27T03:46:48.380Z,-1.88
2022-11-27T03:47:20.452Z,-1.88
2022-11-27T03:47:52.390Z,-1.77
2022-11-27T03:48:24.391Z,-1.77
2022-11-27T03:48:40.490Z,-1.77
2022-11-27T03:49:12.175Z,-1.77
2022-11-27T03:49:28.242Z,-1.77
2022-11-27T03:50:00.113Z,-1.72
2022-11-27T03:50:32.369Z,-1.72
2022-11-27T03:51:05.144Z,-1.72
2022-11-27T03:51:36.163Z,-1.72
2022-11-27T03:52:08.201Z,-1.72
2022-11-27T03:52:40.057Z,-1.77
2022-11-27T03:52:56.173Z,-1.77
2022-11-27T03:53:28.013Z,-1.77
2022-11-27T03:54:12.103Z,-1.88
2022-11-27T03:54:44.230Z,-1.88
2022-11-27T03:55:16.258Z,-1.88
2022-11-27T03:55:47.887Z,-1.88
2022-11-27T03:56:20.074Z,-1.88
2022-11-27T03:56:51.938Z,-2.00
2022-11-27T03:57:24.072Z,-2.00
2022-11-27T03:57:55.925Z,-2.00
2022-11-27T03:58:28.025Z,-2.00
2022-11-27T03:58:59.739Z,-1.88
2022-11-27T03:59:31.810Z,-1.88
2022-11-27T04:00:07.134Z,-1.88
2022-11-27T04:00:35.928Z,-1.88
2022-11-27T04:01:07.747Z,-1.88
2022-11-27T04:01:39.846Z,-1.88
2022-11-27T04:01:55.964Z,-1.88
2022-11-27T04:02:39.709Z,-1.88
2022-11-27T04:03:11.746Z,-1.88
2022-11-27T04:03:43.828Z,-1.88
2022-11-27T04:04:15.681Z,-1.88
2022-11-27T04:04:47.563Z,-1.88
2022-11-27T04:05:19.940Z,-1.88
2022-11-27T04:05:51.441Z,-1.88
2022-11-27T04:06:23.728Z,-1.88
2022-11-27T04:06:39.737Z,-1.88
2022-11-27T04:07:11.518Z,-1.88
2022-11-27T04:07:27.580Z,-1.88
2022-11-27T04:07:59.381Z,-1.88
2022-11-27T04:08:31.420Z,-1.88
2022-11-27T04:09:04.253Z,-1.88
2022-11-27T04:09:35.516Z,-1.88
2022-11-27T04:10:07.530Z,-1.88
2022-11-27T04:10:39.334Z,-1.88
2022-11-27T04:10:55.776Z,-1.88
2022-11-27T04:11:27.154Z,-2.00
2022-11-27T04:12:11.431Z,-2.00
2022-11-27T04:12:43.604Z,-2.00
2022-11-27T04:13:15.165Z,-2.00
2022-11-27T04:13:47.282Z,-2.00
2022-11-27T04:14:19.271Z,-2.11
2022-11-27T04:14:51.190Z,-2.11
2022-11-27T04:15:23.764Z,-2.11
2022-11-27T04:15:39.332Z,-2.11
2022-11-27T04:16:23.616Z,-2.11
2022-11-27T04:16:55.318Z,-2.11
2022-11-27T04:17:26.942Z,-2.00
2022-11-27T04:17:59.045Z,-2.00
2022-11-27T04:18:31.117Z,-2.00
2022-11-27T04:19:03.772Z,-2.00
2022-11-27T04:19:35.349Z,-2.00
2022-11-27T04:20:07.230Z,-2.11
2022-11-27T04:20:38.873Z,-2.11
2022-11-27T04:21:10.968Z,-2.00
2022-11-27T04:21:42.964Z,-2.00
2022-11-27T04:22:15.123Z,-2.00
2022-11-27T04:22:46.885Z,-2.00
2022-11-27T04:23:18.807Z,-2.00
2022-11-27T04:23:50.764Z,-2.11
2022-11-27T04:24:22.798Z,-2.11
2022-11-27T04:24:39.116Z,-2.11
2022-11-27T04:25:10.938Z,-2.11
2022-11-27T04:25:26.790Z,-2.11
2022-11-27T04:25:58.853Z,-2.11
2022-11-27T04:26:30.640Z,-2.11
2022-11-27T04:27:03.381Z,-2.22
2022-11-27T04:27:34.911Z,-2.22
2022-11-27T04:28:06.538Z,-2.22
2022-11-27T04:28:38.633Z,-2.27
2022-11-27T04:29:10.632Z,-2.27
2022-11-27T04:29:42.672Z,-2.27
2022-11-27T04:30:18.932Z,-2.27
2022-11-27T04:30:47.098Z,-2.27
2022-11-27T04:31:18.672Z,-2.27
2022-11-27T04:31:51.055Z,-2.27
2022-11-27T04:32:22.399Z,-2.27
2022-11-27T04:32:38.547Z,-2.27
2022-11-27T04:33:22.453Z,-2.27
2022-11-27T04:33:54.806Z,-2.27
2022-11-27T04:34:26.507Z,-2.27
2022-11-27T04:34:58.333Z,-2.27
2022-11-27T04:35:30.666Z,-2.27
2022-11-27T04:36:03.253Z,-2.27
2022-11-27T04:36:39.057Z,-2.27
2022-11-27T04:37:06.266Z,-2.27
2022-11-27T04:37:38.165Z,-2.27
2022-11-27T04:37:54.572Z,-2.27
2022-11-27T04:38:38.180Z,-2.22
2022-11-27T04:39:10.273Z,-2.22
2022-11-27T04:39:42.461Z,-2.22
2022-11-27T04:40:14.647Z,-2.22
2022-11-27T04:40:46.080Z,-2.22
2022-11-27T04:41:18.077Z,-2.22
2022-11-27T04:41:49.939Z,-2.22
2022-11-27T04:42:21.945Z,-2.22
2022-11-27T04:42:38.184Z,-2.27
2022-11-27T04:43:10.007Z,-2.27
2022-11-27T04:43:26.155Z,-2.27
2022-11-27T04:43:57.827Z,-2.27
2022-11-27T04:44:29.862Z,-2.27
2022-11-27T04:45:05.071Z,-2.22
2022-11-27T04:45:34.042Z,-2.22
2022-11-27T04:46:06.305Z,-2.22
2022-11-27T04:46:37.871Z,-2.22
2022-11-27T04:46:54.292Z,-2.22
2022-11-27T04:47:25.809Z,-2.27
2022-11-27T04:48:09.925Z,-2.27
2022-11-27T04:48:41.656Z,-2.27
2022-11-27T04:49:14.211Z,-2.27
2022-11-27T04:49:45.647Z,-2.27
2022-11-27T04:50:18.021Z,-2.27
2022-11-27T04:50:49.597Z,-2.27
2022-11-27T04:51:21.510Z,-2.27
2022-11-27T04:51:37.804Z,-2.27
2022-11-27T04:52:21.612Z,-2.27
2022-11-27T04:52:54.093Z,-2.27
2022-11-27T04:53:25.644Z,-2.27
2022-11-27T04:53:57.378Z,-2.27
2022-11-27T04:54:29.530Z,-2.27
2022-11-27T04:55:02.626Z,-2.27
2022-11-27T04:55:33.433Z,-2.27
2022-11-27T04:56:06.115Z,-2.27
2022-11-27T04:56:37.537Z,-2.27
2022-11-27T04:57:09.457Z,-2.27
2022-11-27T04:57:41.341Z,-2.38
2022-11-27T04:58:13.690Z,-2.27
2022-11-27T04:58:45.475Z,-2.27
2022-11-27T04:59:17.396Z,-2.27
2022-11-27T04:59:49.131Z,-2.27
2022-11-27T05:00:22.720Z,-2.27
2022-11-27T05:00:53.655Z,-2.27
2022-11-27T05:01:25.361Z,-2.27
2022-11-27T05:01:57.190Z,-2.27
2022-11-27T05:02:29.257Z,-2.27
2022-11-27T05:03:01.720Z,-2.27
2022-11-27T05:03:33.343Z,-2.38
2022-11-27T05:04:05.886Z,-2.38
2022-11-27T05:04:37.063Z,-2.38
2022-11-27T05:05:09.367Z,-2.38
2022-11-27T05:05:41.136Z,-2.38
2022-11-27T05:06:13.076Z,-2.38
2022-11-27T05:06:45.498Z,-2.38
2022-11-27T05:07:16.977Z,-2.38
2022-11-27T05:07:49.053Z,-2.38
2022-11-27T05:08:20.946Z,-2.38
2022-11-27T05:08:53.209Z,-2.38
2022-11-27T05:09:25.050Z,-2.38
2022-11-27T05:09:56.927Z,-2.38
2022-11-27T05:10:28.997Z,-2.38
2022-11-27T05:11:00.884Z,-2.50
2022-11-27T05:11:32.843Z,-2.50
2022-11-27T05:12:05.712Z,-2.50
2022-11-27T05:12:36.679Z,-2.50
2022-11-27T05:12:53.058Z,-2.50
2022-11-27T05:13:36.680Z,-2.61
2022-11-27T05:13:52.922Z,-2.61
2022-11-27T05:14:36.772Z,-2.61
2022-11-27T05:15:09.758Z,-2.61
2022-11-27T05:15:40.571Z,-2.50
2022-11-27T05:16:12.594Z,-2.50
2022-11-27T05:16:45.038Z,-2.50
2022-11-27T05:17:16.741Z,-2.50
2022-11-27T05:17:48.487Z,-2.50
2022-11-27T05:18:20.614Z,-2.50
2022-11-27T05:18:36.713Z,-2.50
2022-11-27T05:19:08.488Z,-2.50
2022-11-27T05:19:24.830Z,-2.50
2022-11-27T05:19:56.340Z,-2.50
2022-11-27T05:20:28.600Z,-2.50
2022-11-27T05:21:00.451Z,-2.50
2022-11-27T05:21:32.442Z,-2.50
2022-11-27T05:22:05.355Z,-2.50
2022-11-27T05:22:36.417Z,-2.38
2022-11-27T05:22:52.364Z,-2.38
2022-11-27T05:23:24.617Z,-2.38
2022-11-27T05:24:08.414Z,-2.38
2022-11-27T05:24:40.431Z,-2.38
2022-11-27T05:25:12.393Z,-2.38
2022-11-27T05:25:44.528Z,-2.50
2022-11-27T05:26:16.224Z,-2.50
2022-11-27T05:26:48.091Z,-2.38
2022-11-27T05:27:20.105Z,-2.38
2022-11-27T05:27:36.341Z,-2.38
2022-11-27T05:28:26.280Z,-2.38
2022-11-27T05:28:52.177Z,-2.38
2022-11-27T05:29:24.621Z,-2.38
2022-11-27T05:29:56.140Z,-2.38
2022-11-27T05:30:28.294Z,-2.38
2022-11-27T05:31:00.217Z,-2.38
2022-11-27T05:31:31.977Z,-2.38
2022-11-27T05:32:04.971Z,-2.38
2022-11-27T05:32:36.049Z,-2.38
2022-11-27T05:33:08.022Z,-2.38
2022-11-27T05:33:39.728Z,-2.38
2022-11-27T05:34:11.910Z,-2.38
2022-11-27T05:34:44.322Z,-2.38
2022-11-27T05:35:16.115Z,-2.38
2022-11-27T05:35:47.713Z,-2.38
2022-11-27T05:36:19.816Z,-2.38
2022-11-27T05:36:36.011Z,-2.38
2022-11-27T05:37:07.676Z,-2.38
2022-11-27T05:37:24.277Z,-2.38
2022-11-27T05:37:55.615Z,-2.38
2022-11-27T05:38:27.711Z,-2.50
2022-11-27T05:38:59.708Z,-2.50
2022-11-27T05:39:31.890Z,-2.50
2022-11-27T05:40:05.365Z,-2.50
2022-11-27T05:40:35.709Z,-2.50
2022-11-27T05:40:52.005Z,-2.50
2022-11-27T05:41:24.153Z,-2.50
2022-11-27T05:42:07.553Z,-2.50
2022-11-27T05:42:39.442Z,-2.50
2022-11-27T05:43:11.466Z,-2.50
2022-11-27T05:43:43.719Z,-2.38
2022-11-27T05:44:15.623Z,-2.38
2022-11-27T05:44:47.316Z,-2.38
2022-11-27T05:45:19.591Z,-2.38
2022-11-27T05:45:51.504Z,-2.38
2022-11-27T05:46:23.899Z,-2.38
2022-11-27T05:46:55.218Z,-2.38
2022-11-27T05:47:27.276Z,-2.38
2022-11-27T05:47:59.217Z,-2.27
2022-11-27T05:48:31.317Z,-2.27
2022-11-27T05:49:04.047Z,-2.27
2022-11-27T05:49:35.249Z,-2.27
2022-11-27T05:49:51.370Z,-2.27
2022-11-27T05:50:35.655Z,-2.38
2022-11-27T05:51:07.253Z,-2.38
2022-11-27T05:51:39.062Z,-2.38
2022-11-27T05:52:11.142Z,-2.38
2022-11-27T05:52:43.198Z,-2.38
2022-11-27T05:53:15.286Z,-2.38
2022-11-27T05:53:46.975Z,-2.50
2022-11-27T05:54:18.902Z,-2.50
2022-11-27T05:54:35.321Z,-2.50
2022-11-27T05:55:07.132Z,-2.50
2022-11-27T05:55:23.402Z,-2.50
2022-11-27T05:55:55.335Z,-2.50
2022-11-27T05:56:26.935Z,-2.50
2022-11-27T05:56:58.937Z,-2.50
2022-11-27T05:57:30.985Z,-2.50
2022-11-27T05:58:04.122Z,-2.50
2022-11-27T05:58:35.011Z,-2.50
2022-11-27T05:58:50.936Z,-2.50
2022-11-27T05:59:22.806Z,-2.50
2022-11-27T06:00:07.456Z,-2.50
2022-11-27T06:00:38.720Z,-2.38
2022-11-27T06:01:10.619Z,-2.38
2022-11-27T06:01:42.819Z,-2.38
2022-11-27T06:02:20.734Z,-2.38
2022-11-27T06:02:46.894Z,-2.38
2022-11-27T06:03:18.620Z,-2.38
2022-11-27T06:03:35.138Z,-2.38
2022-11-27T06:04:18.702Z,-2.50
2022-11-27T06:04:50.727Z,-2.50
2022-11-27T06:05:22.686Z,-2.50
2022-11-27T06:05:54.991Z,-2.50
2022-11-27T06:06:26.559Z,-2.50
2022-11-27T06:06:58.466Z,-2.38
2022-11-27T06:07:30.464Z,-2.38
2022-11-27T06:08:02.885Z,-2.38
2022-11-27T06:08:34.671Z,-2.38
2022-11-27T06:09:12.215Z,-2.50
2022-11-27T06:09:38.397Z,-2.50
2022-11-27T06:10:10.484Z,-2.61
2022-11-27T06:10:42.381Z,-2.61
2022-11-27T06:11:14.591Z,-2.72
2022-11-27T06:11:46.173Z,-2.72
2022-11-27T06:12:18.129Z,-2.72
2022-11-27T06:12:34.529Z,-2.72
2022-11-27T06:13:06.424Z,-2.72
2022-11-27T06:13:22.261Z,-2.72
2022-11-27T06:13:54.616Z,-2.72
2022-11-27T06:14:26.129Z,-2.72
2022-11-27T06:14:58.187Z,-2.61
2022-11-27T06:15:30.630Z,-2.61
2022-11-27T06:16:02.493Z,-2.61
2022-11-27T06:16:34.389Z,-2.61
2022-11-27T06:16:50.184Z,-2.61
2022-11-27T06:17:21.945Z,-2.61
2022-11-27T06:18:06.443Z,-2.61
2022-11-27T06:18:37.939Z,-2.61
2022-11-27T06:19:10.025Z,-2.61
2022-11-27T06:19:42.016Z,-2.61
2022-11-27T06:20:14.355Z,-2.61
2022-11-27T06:20:50.197Z,-2.61
2022-11-27T06:21:18.002Z,-2.61
2022-11-27T06:21:34.287Z,-2.61
2022-11-27T06:22:17.957Z,-2.61
2022-11-27T06:22:49.934Z,-2.61
2022-11-27T06:23:21.698Z,-2.61
2022-11-27T06:23:54.310Z,-2.61
2022-11-27T06:24:25.767Z,-2.72
2022-11-27T06:24:57.840Z,-2.72
2022-11-27T06:25:29.963Z,-2.72
2022-11-27T06:26:01.908Z,-2.77
2022-11-27T06:26:33.937Z,-2.77
2022-11-27T06:27:05.872Z,-2.77
2022-11-27T06:27:37.463Z,-2.77
2022-11-27T06:28:09.627Z,-2.77
2022-11-27T06:28:41.641Z,-2.77
2022-11-27T06:29:13.650Z,-2.77
2022-11-27T06:29:45.600Z,-2.77
2022-11-27T06:30:18.145Z,-2.77
2022-11-27T06:30:33.785Z,-2.77
2022-11-27T06:31:05.592Z,-2.77
2022-11-27T06:31:21.767Z,-2.77
2022-11-27T06:31:53.784Z,-2.77
2022-11-27T06:32:25.338Z,-2.77
2022-11-27T06:32:57.399Z,-2.77
2022-11-27T06:33:29.447Z,-2.77
2022-11-27T06:34:01.381Z,-2.88
2022-11-27T06:34:33.780Z,-2.88
2022-11-27T06:35:05.790Z,-2.88
2022-11-27T06:35:37.318Z,-2.88
2022-11-27T06:36:09.211Z,-2.88
2022-11-27T06:36:41.231Z,-2.88
2022-11-27T06:37:13.703Z,-2.88
2022-11-27T06:37:45.303Z,-2.88
2022-11-27T06:38:17.055Z,-2.88
2022-11-27T06:38:33.509Z,-2.88
2022-11-27T06:39:17.100Z,-2.88
2022-11-27T06:39:49.151Z,-2.88
2022-11-27T06:40:21.657Z,-2.88
2022-11-27T06:40:53.288Z,-2.88
2022-11-27T06:41:25.354Z,-2.88
2022-11-27T06:41:57.076Z,-3.00
2022-11-27T06:42:29.081Z,-3.00
2022-11-27T06:43:01.158Z,-3.00
2022-11-27T06:43:33.226Z,-3.00
2022-11-27T06:44:05.718Z,-3.00
2022-11-27T06:44:37.176Z,-3.00
2022-11-27T06:45:09.907Z,-3.00
2022-11-27T06:45:40.877Z,-3.00
2022-11-27T06:46:13.336Z,-3.00
2022-11-27T06:46:45.308Z,-3.00
2022-11-27T06:47:16.803Z,-3.00
2022-11-27T06:47:33.187Z,-3.11
2022-11-27T06:48:05.835Z,-3.11
2022-11-27T06:48:48.872Z,-3.11
2022-11-27T06:49:20.846Z,-3.11
2022-11-27T06:49:52.522Z,-3.11
2022-11-27T06:50:25.565Z,-3.11